Time;durP1;ratioP1;P1;durP2;ratioP2;P2;SDS_P1;SDS_P2;PMS_P1;PMS_P2;Temp;Humidity;BMP_temperature;BMP_pressure;BME280_temperature;BME280_humidity;BME280_pressure;Samples;Min_cycle;Max_cycle;Signal;HPM_P1;HPM_P2
2022/05/17 00:01:38;;;;;;;;;;;20.60;64.60;;;;;;5056330;28;19951;-80
2022/05/17 00:04:05;;;;;;;;;;;20.60;64.70;;;;;;5057930;28;20187;-80
2022/05/17 00:06:32;;;;;;;;;;;20.50;64.60;;;;;;5058190;28;19936;-79
2022/05/17 00:08:59;;;;;;;;;;;20.50;64.70;;;;;;5053703;28;19933;-78
2022/05/17 00:11:26;;;;;;;;;;;20.50;64.90;;;;;;5057391;28;19935;-80
2022/05/17 00:13:54;;;;;;;;;;;20.50;64.80;;;;;;5055933;28;19932;-79
2022/05/17 00:16:20;;;;;;;;;;;20.50;65.70;;;;;;5058559;28;20311;-81
2022/05/17 00:18:47;;;;;;;;;;;20.40;64.90;;;;;;5057006;28;19932;-79
2022/05/17 00:21:14;;;;;;;;;;;20.40;65.00;;;;;;5054179;28;19928;-79
2022/05/17 00:23:41;;;;;;;;;;;20.40;65.00;;;;;;5055343;28;19942;-79
2022/05/17 00:26:08;;;;;;;;;;;20.40;65.10;;;;;;5054494;28;19936;-80
2022/05/17 00:28:35;;;;;;;;;;;20.30;65.20;;;;;;5055799;28;20086;-81
2022/05/17 00:31:03;;;;;;;;;;;20.30;65.20;;;;;;5053873;28;19929;-80
2022/05/17 00:33:29;;;;;;;;;;;20.30;65.30;;;;;;5055895;28;19929;-78
2022/05/17 00:35:56;;;;;;;;;;;20.30;65.30;;;;;;5054123;28;19933;-80
2022/05/17 00:38:22;;;;;;;;;;;20.20;65.30;;;;;;5052798;28;19929;-78
2022/05/17 00:40:49;;;;;;;;;;;20.20;65.40;;;;;;5054105;28;20237;-78
2022/05/17 00:43:22;;;;;;;;;;;20.20;65.40;;;;;;5054631;28;19932;-80
2022/05/17 00:45:50;;;;;;;;;;;20.10;65.40;;;;;;5057582;28;19929;-78
2022/05/17 00:48:19;;;;;;;;;;;20.10;65.50;;;;;;5054845;28;20015;-79
2022/05/17 00:50:47;;;;;;;;;;;20.10;65.50;;;;;;5054279;28;19936;-80
2022/05/17 00:53:17;;;;;;;;;;;20.00;65.50;;;;;;5050800;28;19936;-79
2022/05/17 00:55:46;;;;;;;;;;;20.00;65.60;;;;;;5051070;28;19976;-78
2022/05/17 00:58:14;;;;;;;;;;;20.00;65.60;;;;;;5045178;28;20739;-78
2022/05/17 01:00:44;;;;;;;;;;;19.90;65.60;;;;;;5049260;28;19971;-79
2022/05/17 01:03:13;;;;;;;;;;;20.00;65.70;;;;;;5046097;28;19929;-79
2022/05/17 01:05:42;;;;;;;;;;;19.90;65.70;;;;;;5048377;28;19935;-83
2022/05/17 01:08:10;;;;;;;;;;;19.90;65.80;;;;;;5050213;28;19929;-81
2022/05/17 01:10:37;;;;;;;;;;;19.90;65.80;;;;;;5047092;28;20748;-78
2022/05/17 01:15:48;;;;;;;;;;;19.80;65.90;;;;;;5049436;28;19932;-80
2022/05/17 01:18:15;;;;;;;;;;;19.80;65.90;;;;;;5048162;28;19959;-79
2022/05/17 01:20:43;;;;;;;;;;;19.80;66.00;;;;;;5050162;28;19928;-78
2022/05/17 01:23:11;;;;;;;;;;;19.70;66.00;;;;;;5047654;28;19952;-81
2022/05/17 01:25:40;;;;;;;;;;;19.70;66.10;;;;;;5048752;28;19940;-80
2022/05/17 01:28:10;;;;;;;;;;;19.70;66.10;;;;;;5050739;28;19929;-79
2022/05/17 01:30:37;;;;;;;;;;;19.70;66.30;;;;;;5047298;28;19933;-79
2022/05/17 01:33:04;;;;;;;;;;;19.60;66.20;;;;;;5047946;28;19975;-80
2022/05/17 01:35:30;;;;;;;;;;;19.60;66.20;;;;;;5047976;28;20031;-79
2022/05/17 01:37:59;;;;;;;;;;;19.60;66.20;;;;;;5048095;28;19932;-79
2022/05/17 01:40:28;;;;;;;;;;;19.50;66.30;;;;;;5046043;28;20035;-79
2022/05/17 01:42:54;;;;;;;;;;;19.50;66.40;;;;;;5049531;28;19933;-79
2022/05/17 01:45:21;;;;;;;;;;;19.50;66.40;;;;;;5047588;28;19925;-79
2022/05/17 01:47:48;;;;;;;;;;;19.50;66.40;;;;;;5048324;28;19940;-78
2022/05/17 01:50:15;;;;;;;;;;;19.40;66.40;;;;;;5049265;28;20216;-78
2022/05/17 01:52:41;;;;;;;;;;;19.40;66.50;;;;;;5043061;28;19929;-80
2022/05/17 01:55:08;;;;;;;;;;;19.40;66.60;;;;;;5046196;28;19944;-78
2022/05/17 01:57:36;;;;;;;;;;;19.40;66.60;;;;;;5047621;28;20672;-79
2022/05/17 02:00:03;;;;;;;;;;;19.30;66.60;;;;;;5044725;28;19936;-80
2022/05/17 02:02:30;;;;;;;;;;;19.30;66.60;;;;;;5065606;28;20235;-78
2022/05/17 02:04:56;;;;;;;;;;;19.30;66.60;;;;;;5064577;28;20062;-78
2022/05/17 02:07:25;;;;;;;;;;;19.20;66.60;;;;;;5066282;28;21486;-78
2022/05/17 02:09:51;;;;;;;;;;;19.20;66.70;;;;;;5065362;28;19940;-78
2022/05/17 02:12:18;;;;;;;;;;;19.20;66.70;;;;;;5065962;28;19928;-80
2022/05/17 02:14:46;;;;;;;;;;;19.20;66.80;;;;;;5065193;28;19970;-79
2022/05/17 02:17:13;;;;;;;;;;;19.20;66.80;;;;;;5063435;28;20511;-79
2022/05/17 02:19:40;;;;;;;;;;;19.10;66.80;;;;;;5065434;28;19933;-79
2022/05/17 02:22:07;;;;;;;;;;;19.10;66.90;;;;;;5063951;28;19929;-78
2022/05/17 02:24:34;;;;;;;;;;;19.10;67.00;;;;;;5064426;28;19944;-79
2022/05/17 02:27:00;;;;;;;;;;;19.00;67.00;;;;;;5060809;28;19935;-79
2022/05/17 02:29:29;;;;;;;;;;;19.00;67.00;;;;;;5059917;28;19936;-79
2022/05/17 02:31:57;;;;;;;;;;;19.00;67.00;;;;;;5047229;28;19928;-78
2022/05/17 02:34:24;;;;;;;;;;;18.90;67.00;;;;;;5043643;28;19928;-78
2022/05/17 02:36:50;;;;;;;;;;;19.00;67.20;;;;;;5042942;28;19932;-80
2022/05/17 02:39:17;;;;;;;;;;;18.90;67.20;;;;;;5045110;28;19929;-79
2022/05/17 02:41:43;;;;;;;;;;;18.90;67.20;;;;;;5044682;28;20375;-79
2022/05/17 02:44:10;;;;;;;;;;;18.90;67.20;;;;;;5043917;28;19929;-81
2022/05/17 02:46:36;;;;;;;;;;;18.80;67.20;;;;;;5044109;28;19940;-78
2022/05/17 02:49:07;;;;;;;;;;;18.80;67.30;;;;;;5039257;28;19933;-80
2022/05/17 02:51:34;;;;;;;;;;;18.80;67.40;;;;;;5045337;28;19929;-78
2022/05/17 02:54:00;;;;;;;;;;;18.80;67.50;;;;;;5040831;28;19940;-78
2022/05/17 02:56:27;;;;;;;;;;;18.70;67.40;;;;;;5043225;28;19930;-81
2022/05/17 02:58:54;;;;;;;;;;;18.70;67.50;;;;;;5040848;28;19929;-78
2022/05/17 03:01:20;;;;;;;;;;;18.70;67.60;;;;;;5044469;28;19936;-80
2022/05/17 03:03:48;;;;;;;;;;;18.70;67.70;;;;;;5046612;28;19928;-79
2022/05/17 03:06:15;;;;;;;;;;;18.60;67.70;;;;;;5047248;28;19952;-78
2022/05/17 03:08:42;;;;;;;;;;;18.60;67.70;;;;;;5047078;28;19933;-79
2022/05/17 03:11:09;;;;;;;;;;;18.60;67.80;;;;;;5048238;28;19939;-79
2022/05/17 03:13:36;;;;;;;;;;;18.60;67.90;;;;;;5046846;28;19957;-79
2022/05/17 03:16:03;;;;;;;;;;;18.50;67.90;;;;;;5045269;28;20631;-80
2022/05/17 03:18:29;;;;;;;;;;;18.40;67.90;;;;;;5048391;28;19929;-79
2022/05/17 03:20:56;;;;;;;;;;;18.50;68.00;;;;;;5046059;28;20419;-78
2022/05/17 03:23:24;;;;;;;;;;;18.40;68.00;;;;;;5045577;28;19936;-79
2022/05/17 03:25:50;;;;;;;;;;;18.40;68.00;;;;;;5047932;28;20574;-79
2022/05/17 03:28:17;;;;;;;;;;;18.40;68.10;;;;;;5048366;28;19928;-80
2022/05/17 03:30:44;;;;;;;;;;;18.40;68.10;;;;;;5045996;28;19929;-79
2022/05/17 03:33:10;;;;;;;;;;;18.30;68.10;;;;;;5047138;28;20060;-81
2022/05/17 03:35:37;;;;;;;;;;;18.40;68.20;;;;;;5050295;28;19935;-80
2022/05/17 03:38:04;;;;;;;;;;;18.30;68.20;;;;;;5048075;28;19940;-79
2022/05/17 03:40:32;;;;;;;;;;;18.30;68.30;;;;;;5046956;28;19966;-79
2022/05/17 03:42:59;;;;;;;;;;;18.30;68.30;;;;;;5046682;28;19960;-79
2022/05/17 03:45:25;;;;;;;;;;;18.20;68.30;;;;;;5043856;28;19935;-79
2022/05/17 03:47:52;;;;;;;;;;;18.20;68.40;;;;;;5046104;28;19933;-79
2022/05/17 03:50:19;;;;;;;;;;;18.10;68.40;;;;;;5045598;28;19940;-79
2022/05/17 03:52:45;;;;;;;;;;;18.10;68.40;;;;;;5044748;28;19944;-80
2022/05/17 03:55:12;;;;;;;;;;;18.10;68.50;;;;;;5044968;28;20304;-79
2022/05/17 03:57:40;;;;;;;;;;;18.00;68.50;;;;;;5043358;28;20024;-79
2022/05/17 04:00:08;;;;;;;;;;;18.10;68.70;;;;;;5043529;28;19933;-78
2022/05/17 04:02:36;;;;;;;;;;;18.00;68.70;;;;;;5042959;28;20016;-79
2022/05/17 04:05:03;;;;;;;;;;;18.00;68.80;;;;;;5044458;28;19928;-78
2022/05/17 04:07:30;;;;;;;;;;;18.00;68.90;;;;;;5045981;28;19929;-80
2022/05/17 04:09:57;;;;;;;;;;;18.00;69.00;;;;;;5044050;28;20020;-80
2022/05/17 04:12:23;;;;;;;;;;;18.00;69.00;;;;;;5046841;28;21176;-80
2022/05/17 04:14:51;;;;;;;;;;;17.90;69.00;;;;;;5044981;28;19928;-78
2022/05/17 04:17:18;;;;;;;;;;;17.90;69.10;;;;;;5046117;28;19933;-79
2022/05/17 04:19:45;;;;;;;;;;;17.90;69.20;;;;;;5044762;28;19928;-79
2022/05/17 04:22:11;;;;;;;;;;;17.80;69.20;;;;;;5043709;28;19928;-80
2022/05/17 04:24:41;;;;;;;;;;;17.80;69.30;;;;;;5047603;28;19928;-79
2022/05/17 04:27:07;;;;;;;;;;;17.80;69.30;;;;;;5045381;28;19990;-79
2022/05/17 04:29:34;;;;;;;;;;;17.80;69.40;;;;;;5042505;28;19940;-81
2022/05/17 04:32:02;;;;;;;;;;;17.70;69.40;;;;;;5045197;28;19929;-79
2022/05/17 04:34:28;;;;;;;;;;;17.70;69.50;;;;;;5044556;28;19936;-79
2022/05/17 04:36:55;;;;;;;;;;;17.70;69.60;;;;;;5042845;28;19933;-78
2022/05/17 04:39:22;;;;;;;;;;;17.70;69.70;;;;;;5044058;28;19933;-79
2022/05/17 04:41:49;;;;;;;;;;;17.70;70.30;;;;;;5041440;28;19968;-77
2022/05/17 04:44:15;;;;;;;;;;;17.70;69.90;;;;;;5037634;28;19929;-81
2022/05/17 04:46:42;;;;;;;;;;;17.60;69.90;;;;;;5040468;28;20308;-78
2022/05/17 04:49:10;;;;;;;;;;;17.60;70.00;;;;;;5040516;28;19939;-79
2022/05/17 04:51:37;;;;;;;;;;;17.60;70.00;;;;;;5042685;28;19929;-78
2022/05/17 04:54:03;;;;;;;;;;;17.60;70.10;;;;;;5035009;28;19933;-78
2022/05/17 04:56:30;;;;;;;;;;;17.60;70.20;;;;;;5038019;28;19982;-79
2022/05/17 04:58:56;;;;;;;;;;;17.50;70.10;;;;;;5038142;28;19929;-80
2022/05/17 05:01:24;;;;;;;;;;;17.60;70.30;;;;;;5040147;28;19925;-79
2022/05/17 05:03:50;;;;;;;;;;;17.50;70.30;;;;;;5044819;28;19933;-79
2022/05/17 05:06:18;;;;;;;;;;;17.50;70.50;;;;;;5041949;28;19929;-78
2022/05/17 05:08:45;;;;;;;;;;;17.50;70.60;;;;;;5045770;28;19933;-78
2022/05/17 05:11:11;;;;;;;;;;;17.50;70.80;;;;;;5044053;28;19936;-80
2022/05/17 05:13:38;;;;;;;;;;;17.40;70.90;;;;;;5043534;28;19936;-78
2022/05/17 05:16:09;;;;;;;;;;;17.40;71.00;;;;;;5044149;28;19929;-80
2022/05/17 05:18:36;;;;;;;;;;;17.40;71.10;;;;;;5041018;28;20027;-78
2022/05/17 05:21:03;;;;;;;;;;;17.40;71.50;;;;;;5047132;28;20279;-80
2022/05/17 05:23:31;;;;;;;;;;;17.40;73.80;;;;;;5043668;28;19936;-78
2022/05/17 05:25:58;;;;;;;;;;;17.40;73.50;;;;;;5046437;28;19933;-80
2022/05/17 05:28:25;;;;;;;;;;;17.30;73.70;;;;;;5044110;28;21197;-79
2022/05/17 05:30:51;;;;;;;;;;;17.30;73.60;;;;;;5045823;28;19982;-68
2022/05/17 05:33:18;;;;;;;;;;;17.30;73.50;;;;;;5037383;28;20712;-67
2022/05/17 05:35:44;;;;;;;;;;;17.30;73.50;;;;;;5034903;28;20574;-68
2022/05/17 05:38:11;;;;;;;;;;;17.30;73.50;;;;;;5038899;28;19940;-67
2022/05/17 05:40:39;;;;;;;;;;;17.30;73.60;;;;;;5035246;28;19936;-67
2022/05/17 05:43:06;;;;;;;;;;;17.30;73.50;;;;;;5033814;28;20024;-68
2022/05/17 05:45:33;;;;;;;;;;;17.30;73.60;;;;;;5040014;28;20561;-69
2022/05/17 05:47:59;;;;;;;;;;;17.30;73.40;;;;;;5037873;28;19928;-66
2022/05/17 05:50:26;;;;;;;;;;;17.30;73.30;;;;;;5039430;28;20029;-67
2022/05/17 05:52:58;;;;;;;;;;;17.30;73.30;;;;;;5036520;28;19936;-66
2022/05/17 05:55:25;;;;;;;;;;;17.30;73.20;;;;;;5036536;28;19929;-68
2022/05/17 05:57:53;;;;;;;;;;;17.40;73.20;;;;;;5032710;28;19928;-67
2022/05/17 06:00:20;;;;;;;;;;;17.30;73.10;;;;;;5035216;28;19935;-68
2022/05/17 06:02:47;;;;;;;;;;;17.40;73.10;;;;;;5039963;28;19929;-67
2022/05/17 06:05:14;;;;;;;;;;;17.40;73.00;;;;;;5039319;28;19929;-67
2022/05/17 06:07:41;;;;;;;;;;;17.40;73.00;;;;;;5038496;28;20051;-80
2022/05/17 06:10:08;;;;;;;;;;;17.40;73.10;;;;;;5044397;28;19933;-82
2022/05/17 06:12:35;;;;;;;;;;;17.40;73.30;;;;;;5042942;28;19929;-80
2022/05/17 06:15:03;;;;;;;;;;;17.40;73.30;;;;;;5040888;28;19959;-80
2022/05/17 06:17:30;;;;;;;;;;;17.40;73.20;;;;;;5033537;28;19982;-79
2022/05/17 06:19:57;;;;;;;;;;;17.40;73.20;;;;;;5039154;28;19933;-81
2022/05/17 06:22:24;;;;;;;;;;;17.50;73.20;;;;;;5042939;28;19929;-78
2022/05/17 06:24:51;;;;;;;;;;;17.50;73.00;;;;;;5044742;28;20628;-79
2022/05/17 06:27:17;;;;;;;;;;;17.50;74.10;;;;;;5041962;28;19929;-78
2022/05/17 06:29:44;;;;;;;;;;;17.50;73.10;;;;;;5044279;28;19936;-78
2022/05/17 06:32:13;;;;;;;;;;;17.50;72.80;;;;;;5043488;28;20353;-80
2022/05/17 06:34:39;;;;;;;;;;;17.50;72.60;;;;;;5038262;28;19936;-78
2022/05/17 06:37:06;;;;;;;;;;;17.60;72.80;;;;;;5040439;28;20597;-77
2022/05/17 06:39:33;;;;;;;;;;;17.60;73.10;;;;;;5042820;28;19929;-79
2022/05/17 06:42:00;;;;;;;;;;;17.60;73.20;;;;;;5046172;28;20008;-78
2022/05/17 06:44:27;;;;;;;;;;;17.60;73.10;;;;;;5045779;28;19936;-78
2022/05/17 06:46:55;;;;;;;;;;;17.60;73.10;;;;;;5063601;28;19967;-79
2022/05/17 06:49:23;;;;;;;;;;;17.60;73.30;;;;;;5064087;28;19978;-79
2022/05/17 06:51:50;;;;;;;;;;;17.70;73.40;;;;;;5067383;28;19935;-78
2022/05/17 06:54:16;;;;;;;;;;;17.70;73.30;;;;;;5065467;28;19928;-79
2022/05/17 06:56:43;;;;;;;;;;;17.70;73.30;;;;;;5064349;28;19948;-78
2022/05/17 06:59:10;;;;;;;;;;;17.70;73.40;;;;;;5062984;28;19928;-80
2022/05/17 07:01:36;;;;;;;;;;;17.80;73.40;;;;;;5051646;28;19928;-78
2022/05/17 07:04:03;;;;;;;;;;;17.80;73.60;;;;;;5045153;28;19933;-78
2022/05/17 07:06:31;;;;;;;;;;;17.80;73.70;;;;;;5046616;28;20440;-78
2022/05/17 07:08:58;;;;;;;;;;;17.80;73.10;;;;;;5044188;28;19936;-77
2022/05/17 07:14:09;;;;;;;;;;;17.90;73.10;;;;;;5043643;28;20760;-78
2022/05/17 07:16:35;;;;;;;;;;;17.90;73.00;;;;;;5044713;28;19932;-79
2022/05/17 07:19:02;;;;;;;;;;;17.90;73.30;;;;;;5044964;28;19933;-79
2022/05/17 07:21:29;;;;;;;;;;;18.00;74.40;;;;;;5044290;28;19932;-78
2022/05/17 07:23:56;;;;;;;;;;;18.00;73.90;;;;;;5043575;28;19928;-79
2022/05/17 07:26:23;;;;;;;;;;;18.00;74.00;;;;;;5044832;28;19928;-77
2022/05/17 07:28:50;;;;;;;;;;;18.00;74.10;;;;;;5042203;28;19933;-79
2022/05/17 07:31:16;;;;;;;;;;;18.10;74.10;;;;;;5046023;28;19928;-78
2022/05/17 07:33:44;;;;;;;;;;;18.10;74.00;;;;;;5045171;28;19933;-79
2022/05/17 07:36:12;;;;;;;;;;;18.10;74.10;;;;;;5044570;28;19936;-80
2022/05/17 07:38:39;;;;;;;;;;;18.20;74.50;;;;;;5042532;28;19936;-80
2022/05/17 07:41:07;;;;;;;;;;;18.20;74.60;;;;;;5042613;28;19928;-79
2022/05/17 07:43:34;;;;;;;;;;;18.20;74.50;;;;;;5047545;28;20047;-78
2022/05/17 07:46:01;;;;;;;;;;;18.30;74.50;;;;;;5056054;28;20511;-80
2022/05/17 07:48:28;;;;;;;;;;;18.30;74.60;;;;;;5044539;28;19928;-79
2022/05/17 07:50:54;;;;;;;;;;;18.30;74.40;;;;;;5046572;28;20335;-79
2022/05/17 07:53:22;;;;;;;;;;;18.40;74.40;;;;;;5042797;28;20580;-80
2022/05/17 07:55:50;;;;;;;;;;;18.40;74.60;;;;;;5045137;28;19935;-79
2022/05/17 07:58:18;;;;;;;;;;;18.50;74.40;;;;;;5040846;28;19929;-78
2022/05/17 08:00:55;;;;;;;;;;;18.50;74.40;;;;;;5033188;28;19933;-77
2022/05/17 08:06:09;;;;;;;;;;;18.60;74.30;;;;;;4997516;28;19949;-77
2022/05/17 08:08:35;;;;;;;;;;;18.50;73.80;;;;;;5004223;28;19929;-78
2022/05/17 08:11:02;;;;;;;;;;;18.70;73.70;;;;;;5005209;28;20598;-80
2022/05/17 08:13:30;;;;;;;;;;;18.70;73.60;;;;;;5000454;28;19936;-77
2022/05/17 08:15:57;;;;;;;;;;;18.80;73.50;;;;;;4998811;28;19930;-79
2022/05/17 08:18:23;;;;;;;;;;;18.80;73.40;;;;;;5005187;28;20499;-80
2022/05/17 08:20:50;;;;;;;;;;;18.80;73.10;;;;;;5004220;28;20025;-81
2022/05/17 08:23:17;;;;;;;;;;;18.80;73.00;;;;;;4993695;28;19940;-79
2022/05/17 08:28:27;;;;;;;;;;;18.90;72.90;;;;;;4993965;28;20317;-80
2022/05/17 08:30:55;;;;;;;;;;;19.00;73.00;;;;;;4993655;28;19937;-79
2022/05/17 08:33:23;;;;;;;;;;;19.10;72.90;;;;;;4999431;28;19930;-79
2022/05/17 08:35:51;;;;;;;;;;;19.10;72.60;;;;;;4998056;28;19936;-81
2022/05/17 08:38:20;;;;;;;;;;;19.10;72.40;;;;;;5000154;28;19930;-78
2022/05/17 08:40:54;;;;;;;;;;;19.20;72.20;;;;;;5002088;28;20343;-80
2022/05/17 08:43:23;;;;;;;;;;;19.20;72.00;;;;;;5000213;28;19981;-79
2022/05/17 08:45:59;;;;;;;;;;;19.30;71.90;;;;;;4998084;28;19937;-80
2022/05/17 08:48:28;;;;;;;;;;;19.30;71.80;;;;;;4999343;28;20040;-78
2022/05/17 08:50:55;;;;;;;;;;;19.40;71.70;;;;;;4994657;28;19933;-79
2022/05/17 08:53:22;;;;;;;;;;;19.40;71.60;;;;;;5000175;28;19929;-79
2022/05/17 08:55:51;;;;;;;;;;;19.50;71.60;;;;;;5001117;28;19926;-79
2022/05/17 08:58:20;;;;;;;;;;;19.50;71.60;;;;;;5001202;28;20001;-79
2022/05/17 09:00:48;;;;;;;;;;;19.50;71.40;;;;;;4996561;28;19936;-79
2022/05/17 09:03:22;;;;;;;;;;;19.60;71.30;;;;;;5000135;28;19980;-78
2022/05/17 09:05:53;;;;;;;;;;;19.60;71.30;;;;;;5003921;28;19938;-78
2022/05/17 09:08:25;;;;;;;;;;;19.70;71.30;;;;;;5001651;28;19929;-79
2022/05/17 09:10:54;;;;;;;;;;;19.70;71.30;;;;;;4995872;28;19933;-83
2022/05/17 09:13:24;;;;;;;;;;;19.80;71.20;;;;;;4995320;28;20026;-79
2022/05/17 09:15:51;;;;;;;;;;;19.80;71.10;;;;;;4993774;28;19936;-80
2022/05/17 09:18:19;;;;;;;;;;;19.80;71.00;;;;;;4994074;28;20467;-79
2022/05/17 09:20:46;;;;;;;;;;;19.90;70.80;;;;;;4996745;28;19949;-79
2022/05/17 09:23:13;;;;;;;;;;;20.00;70.60;;;;;;4995420;28;19941;-79
2022/05/17 09:25:50;;;;;;;;;;;20.00;70.40;;;;;;4992789;28;19933;-80
2022/05/17 09:28:18;;;;;;;;;;;20.00;70.40;;;;;;4996446;28;20241;-79
2022/05/17 09:30:45;;;;;;;;;;;20.10;69.90;;;;;;4997772;28;19936;-78
2022/05/17 09:33:14;;;;;;;;;;;20.20;69.90;;;;;;4993819;28;19940;-81
2022/05/17 09:35:44;;;;;;;;;;;20.30;69.60;;;;;;4993196;28;20028;-81
2022/05/17 09:38:10;;;;;;;;;;;20.30;69.30;;;;;;4995396;28;19940;-80
2022/05/17 09:40:38;;;;;;;;;;;20.30;69.20;;;;;;4995147;28;19930;-81
2022/05/17 09:43:06;;;;;;;;;;;20.40;69.20;;;;;;4994164;28;19968;-82
2022/05/17 09:45:38;;;;;;;;;;;20.40;69.00;;;;;;4995437;28;19933;-79
2022/05/17 09:48:06;;;;;;;;;;;20.50;68.80;;;;;;4993078;28;20019;-68
2022/05/17 09:53:38;;;;;;;;;;;20.50;68.10;;;;;;4992637;28;20535;-70
2022/05/17 09:56:06;;;;;;;;;;;20.70;67.80;;;;;;4990378;28;20294;-69
2022/05/17 09:58:33;;;;;;;;;;;20.80;67.00;;;;;;4991538;28;20036;-68
2022/05/17 10:01:01;;;;;;;;;;;20.80;67.20;;;;;;4990613;28;19933;-69
2022/05/17 10:03:29;;;;;;;;;;;20.90;67.00;;;;;;4993194;28;19929;-70
2022/05/17 10:05:57;;;;;;;;;;;21.00;67.10;;;;;;4992048;28;19929;-69
2022/05/17 10:08:41;;;;;;;;;;;21.00;66.90;;;;;;4996301;28;20564;-66
2022/05/17 10:11:13;;;;;;;;;;;21.10;66.60;;;;;;4995598;28;20136;-66
2022/05/17 10:13:48;;;;;;;;;;;21.20;66.50;;;;;;4993600;28;20055;-78
2022/05/17 10:16:17;;;;;;;;;;;21.20;66.00;;;;;;4990231;28;19936;-78
2022/05/17 10:18:46;;;;;;;;;;;21.30;66.10;;;;;;4979344;28;20327;-77
2022/05/17 10:21:16;;;;;;;;;;;21.30;65.80;;;;;;4984737;28;19930;-79
2022/05/17 10:23:51;;;;;;;;;;;21.40;65.50;;;;;;4982332;28;20508;-78
2022/05/17 10:26:21;;;;;;;;;;;21.50;65.10;;;;;;4980874;28;20670;-75
2022/05/17 10:28:50;;;;;;;;;;;21.50;64.90;;;;;;4981352;28;21026;-76
2022/05/17 10:31:19;;;;;;;;;;;21.60;64.50;;;;;;4990943;28;19929;-77
2022/05/17 10:33:56;;;;;;;;;;;21.70;64.40;;;;;;5003679;28;19937;-75
2022/05/17 10:36:25;;;;;;;;;;;21.70;64.20;;;;;;5007908;28;20384;-77
2022/05/17 10:38:59;;;;;;;;;;;21.80;63.60;;;;;;5006812;28;20281;-76
2022/05/17 10:41:26;;;;;;;;;;;21.90;63.50;;;;;;5006480;28;19930;-75
2022/05/17 10:43:53;;;;;;;;;;;21.90;63.60;;;;;;5001726;28;20015;-76
2022/05/17 10:46:21;;;;;;;;;;;22.00;63.40;;;;;;5004115;28;20345;-75
2022/05/17 10:48:55;;;;;;;;;;;22.10;62.90;;;;;;4999813;28;19948;-75
2022/05/17 10:51:26;;;;;;;;;;;22.10;62.20;;;;;;5001560;28;20397;-75
2022/05/17 10:53:59;;;;;;;;;;;22.20;61.90;;;;;;4999482;28;19937;-75
2022/05/17 10:56:33;;;;;;;;;;;22.30;62.00;;;;;;5004932;28;19933;-76
2022/05/17 10:59:02;;;;;;;;;;;22.30;61.70;;;;;;5000841;28;19933;-76
2022/05/17 11:01:32;;;;;;;;;;;22.40;61.40;;;;;;5004805;28;19930;-76
2022/05/17 11:04:14;;;;;;;;;;;22.40;60.90;;;;;;5000243;28;19937;-76
2022/05/17 11:06:46;;;;;;;;;;;22.50;61.10;;;;;;5002848;28;20309;-75
2022/05/17 11:09:16;;;;;;;;;;;22.60;61.10;;;;;;5004905;28;20368;-76
2022/05/17 11:11:49;;;;;;;;;;;22.60;60.60;;;;;;5005762;28;19934;-76
2022/05/17 11:14:20;;;;;;;;;;;22.70;60.30;;;;;;5000642;28;19925;-77
2022/05/17 11:16:51;;;;;;;;;;;22.80;60.40;;;;;;4998212;28;20302;-76
2022/05/17 11:19:21;;;;;;;;;;;22.80;60.40;;;;;;5001941;28;19933;-75
2022/05/17 11:21:50;;;;;;;;;;;22.90;60.30;;;;;;5005111;28;19945;-75
2022/05/17 11:24:21;;;;;;;;;;;23.00;60.00;;;;;;5001351;28;19980;-76
2022/05/17 11:26:57;;;;;;;;;;;23.00;59.50;;;;;;5008475;28;19929;-76
2022/05/17 11:29:32;;;;;;;;;;;23.10;59.40;;;;;;5005817;28;20020;-75
2022/05/17 11:32:00;;;;;;;;;;;23.20;59.30;;;;;;5009146;28;20544;-76
2022/05/17 11:34:41;;;;;;;;;;;23.20;59.10;;;;;;5008890;28;19930;-75
2022/05/17 11:37:09;;;;;;;;;;;23.30;59.00;;;;;;5006366;28;19933;-75
2022/05/17 11:39:46;;;;;;;;;;;23.40;58.90;;;;;;5001916;28;19926;-77
2022/05/17 11:42:26;;;;;;;;;;;23.40;58.60;;;;;;5007582;28;20563;-76
2022/05/17 11:44:53;;;;;;;;;;;23.50;58.40;;;;;;5006617;28;19977;-77
2022/05/17 11:47:30;;;;;;;;;;;23.60;58.40;;;;;;5007150;28;19933;-76
2022/05/17 11:50:11;;;;;;;;;;;23.60;58.00;;;;;;5002400;28;19934;-77
2022/05/17 11:52:38;;;;;;;;;;;23.80;57.90;;;;;;5005519;28;19937;-76
2022/05/17 11:55:08;;;;;;;;;;;23.80;57.60;;;;;;5003083;28;19926;-75
2022/05/17 11:57:59;;;;;;;;;;;23.80;57.40;;;;;;5003035;28;19925;-76
2022/05/17 12:00:37;;;;;;;;;;;23.90;57.30;;;;;;4999499;28;19930;-75
2022/05/17 12:03:05;;;;;;;;;;;24.00;57.00;;;;;;4998215;28;20684;-66
2022/05/17 12:05:56;;;;;;;;;;;24.10;56.40;;;;;;5002205;28;20032;-68
2022/05/17 12:08:29;;;;;;;;;;;24.10;56.30;;;;;;5001659;28;20389;-66
2022/05/17 12:10:59;;;;;;;;;;;24.20;56.30;;;;;;5001668;28;20048;-68
2022/05/17 12:13:26;;;;;;;;;;;24.30;56.20;;;;;;5003472;28;19937;-69
2022/05/17 12:15:53;;;;;;;;;;;24.30;55.70;;;;;;4998551;28;20400;-66
2022/05/17 12:18:27;;;;;;;;;;;24.30;55.40;;;;;;5005745;28;19930;-68
2022/05/17 12:21:21;;;;;;;;;;;24.40;55.00;;;;;;4998179;28;20039;-70
2022/05/17 12:23:50;;;;;;;;;;;24.50;54.80;;;;;;4964094;28;19938;-67
2022/05/17 12:26:21;;;;;;;;;;;24.50;54.60;;;;;;5001207;28;19926;-67
2022/05/17 12:28:52;;;;;;;;;;;24.50;54.10;;;;;;4997118;28;20452;-72
2022/05/17 12:31:21;;;;;;;;;;;24.60;54.30;;;;;;5003512;28;19933;-68
2022/05/17 12:33:49;;;;;;;;;;;24.70;54.30;;;;;;5002931;28;20091;-68
2022/05/17 12:36:18;;;;;;;;;;;24.70;54.20;;;;;;4996097;28;19937;-70
2022/05/17 12:44:24;;;;;;;;;;;24.80;54.10;;;;;;4997910;28;19937;-68
2022/05/17 12:46:52;;;;;;;;;;;24.90;53.70;;;;;;4998559;28;19930;-68
2022/05/17 12:49:20;;;;;;;;;;;25.00;53.80;;;;;;4996482;28;19941;-77
2022/05/17 12:51:50;;;;;;;;;;;25.00;53.80;;;;;;4989694;28;19929;-76
2022/05/17 12:54:19;;;;;;;;;;;25.10;53.70;;;;;;4990115;28;20504;-75
2022/05/17 12:56:47;;;;;;;;;;;25.10;53.50;;;;;;4995151;28;20495;-74
2022/05/17 12:59:14;;;;;;;;;;;25.20;53.60;;;;;;4993254;28;19929;-76
2022/05/17 13:01:42;;;;;;;;;;;25.20;53.20;;;;;;4995792;28;20408;-75
2022/05/17 13:04:10;;;;;;;;;;;25.30;53.10;;;;;;4993368;28;19933;-77
2022/05/17 13:06:37;;;;;;;;;;;25.30;52.70;;;;;;4996588;28;19933;-73
2022/05/17 13:09:06;;;;;;;;;;;25.40;52.50;;;;;;4994928;28;20309;-75
2022/05/17 13:11:33;;;;;;;;;;;25.20;52.50;;;;;;4994368;28;19933;-78
2022/05/17 13:14:08;;;;;;;;;;;25.50;52.20;;;;;;4997652;28;19929;-74
2022/05/17 13:16:36;;;;;;;;;;;25.50;52.40;;;;;;4995167;28;19934;-74
2022/05/17 13:19:04;;;;;;;;;;;25.50;52.20;;;;;;4998462;28;20178;-74
2022/05/17 13:21:32;;;;;;;;;;;25.60;52.30;;;;;;4995218;28;19934;-75
2022/05/17 13:23:59;;;;;;;;;;;25.70;52.20;;;;;;4996133;28;19929;-76
2022/05/17 13:26:27;;;;;;;;;;;25.70;52.30;;;;;;4995641;28;19929;-77
2022/05/17 13:28:54;;;;;;;;;;;25.70;52.00;;;;;;4998377;28;19980;-68
2022/05/17 13:31:23;;;;;;;;;;;25.80;51.80;;;;;;5002781;28;19933;-68
2022/05/17 13:33:54;;;;;;;;;;;25.90;51.50;;;;;;5001286;28;19930;-67
2022/05/17 13:36:30;;;;;;;;;;;25.90;51.20;;;;;;5001950;28;19937;-69
2022/05/17 13:38:56;;;;;;;;;;;25.90;50.90;;;;;;5000703;28;19937;-65
2022/05/17 13:41:27;;;;;;;;;;;26.00;51.30;;;;;;5000204;28;20436;-67
2022/05/17 13:43:55;;;;;;;;;;;26.00;51.40;;;;;;4996916;28;19973;-68
2022/05/17 13:46:26;;;;;;;;;;;26.10;51.20;;;;;;4995628;28;19957;-70
2022/05/17 13:49:02;;;;;;;;;;;26.20;51.00;;;;;;4997624;28;19933;-69
2022/05/17 13:51:32;;;;;;;;;;;26.20;50.90;;;;;;4996864;28;19936;-65
2022/05/17 13:54:02;;;;;;;;;;;26.30;50.80;;;;;;4994301;28;19934;-68
2022/05/17 13:56:31;;;;;;;;;;;26.30;50.60;;;;;;5001011;28;19937;-69
2022/05/17 13:58:59;;;;;;;;;;;26.40;50.60;;;;;;4995142;28;19929;-68
2022/05/17 14:01:32;;;;;;;;;;;26.40;50.20;;;;;;5000211;28;19930;-67
2022/05/17 14:04:10;;;;;;;;;;;26.50;49.70;;;;;;4990537;28;19930;-68
2022/05/17 14:06:44;;;;;;;;;;;26.50;49.60;;;;;;5001832;28;21396;-66
2022/05/17 14:11:58;;;;;;;;;;;26.70;48.70;;;;;;4995965;28;19945;-67
2022/05/17 14:14:25;;;;;;;;;;;26.70;49.00;;;;;;4995544;28;19984;-67
2022/05/17 14:16:55;;;;;;;;;;;26.80;49.40;;;;;;5002971;28;19936;-69
2022/05/17 14:19:23;;;;;;;;;;;26.80;48.60;;;;;;5002250;28;19940;-69
2022/05/17 14:21:51;;;;;;;;;;;26.90;48.40;;;;;;5000323;28;20050;-66
2022/05/17 14:24:18;;;;;;;;;;;26.90;48.30;;;;;;4996335;28;19933;-70
2022/05/17 14:26:45;;;;;;;;;;;27.10;47.80;;;;;;4999823;28;19929;-67
2022/05/17 14:29:12;;;;;;;;;;;27.30;46.70;;;;;;4998503;28;19933;-68
2022/05/17 14:31:40;;;;;;;;;;;27.50;46.00;;;;;;4997874;28;20412;-75
2022/05/17 14:34:10;;;;;;;;;;;27.80;45.80;;;;;;4996594;28;19930;-74
2022/05/17 14:36:36;;;;;;;;;;;28.00;45.50;;;;;;4997607;28;20644;-73
2022/05/17 14:39:03;;;;;;;;;;;28.20;45.20;;;;;;5000938;28;19936;-73
2022/05/17 14:41:30;;;;;;;;;;;28.30;45.20;;;;;;4993889;28;19930;-73
2022/05/17 14:43:56;;;;;;;;;;;28.50;45.20;;;;;;4995706;28;19988;-73
2022/05/17 14:46:23;;;;;;;;;;;28.60;44.80;;;;;;4994518;28;19945;-73